Time;durP1;ratioP1;P1;durP2;ratioP2;P2;SDS_P1;SDS_P2;PMS_P1;PMS_P2;Temp;Humidity;BMP_temperature;BMP_pressure;BME280_temperature;BME280_humidity;BME280_pressure;Samples;Min_cycle;Max_cycle;Signal;HPM_P1;HPM_P2
2022/06/16 00:01:45;;;;;;;0.00;0.00;;;;;;;;;;5063902;28;20248;-64
2022/06/16 00:04:11;;;;;;;0.00;0.00;;;;;;;;;;5064813;28;20238;-64
2022/06/16 00:06:37;;;;;;;0.00;0.00;;;;;;;;;;5063426;28;20253;-65
2022/06/16 00:09:04;;;;;;;0.10;0.10;;;;;;;;;;5065470;28;20261;-64
2022/06/16 00:11:32;;;;;;;0.00;0.00;;;;;;;;;;5062327;28;20249;-65
2022/06/16 00:13:58;;;;;;;0.00;0.00;;;;;;;;;;5066087;28;20420;-64
2022/06/16 00:16:25;;;;;;;0.10;0.10;;;;;;;;;;5065609;28;20246;-64
2022/06/16 00:18:51;;;;;;;0.10;0.10;;;;;;;;;;5070972;28;20235;-67
2022/06/16 00:21:18;;;;;;;0.00;0.00;;;;;;;;;;5064396;28;20247;-66
2022/06/16 00:23:45;;;;;;;0.00;0.00;;;;;;;;;;5071705;28;20437;-67
2022/06/16 00:26:12;;;;;;;0.00;0.00;;;;;;;;;;5063931;28;20555;-67
2022/06/16 00:28:41;;;;;;;0.10;0.10;;;;;;;;;;5072088;28;20284;-67
2022/06/16 00:31:08;;;;;;;0.08;0.08;;;;;;;;;;5062987;28;20410;-68
2022/06/16 00:33:35;;;;;;;0.10;0.10;;;;;;;;;;5072592;28;20214;-67
2022/06/16 00:36:01;;;;;;;0.00;0.00;;;;;;;;;;5062126;28;20311;-67
2022/06/16 00:38:28;;;;;;;0.00;0.00;;;;;;;;;;5073392;28;20239;-66
2022/06/16 00:40:54;;;;;;;0.00;0.00;;;;;;;;;;5060851;28;20237;-67
2022/06/16 00:43:21;;;;;;;0.00;0.00;;;;;;;;;;5073921;28;20205;-67
2022/06/16 00:45:50;;;;;;;0.10;0.10;;;;;;;;;;5060405;28;20254;-67
2022/06/16 00:48:19;;;;;;;0.00;0.00;;;;;;;;;;5074603;28;20238;-66
2022/06/16 00:50:48;;;;;;;0.08;0.08;;;;;;;;;;5059873;28;20322;-67
2022/06/16 00:53:16;;;;;;;0.00;0.00;;;;;;;;;;5074586;28;20229;-67
2022/06/16 00:55:44;;;;;;;0.10;0.10;;;;;;;;;;5059472;28;20552;-67
2022/06/16 00:58:10;;;;;;;0.00;0.00;;;;;;;;;;5075052;28;20224;-67
2022/06/16 01:00:39;;;;;;;0.10;0.10;;;;;;;;;;5058322;28;20247;-68
2022/06/16 01:03:07;;;;;;;0.10;0.10;;;;;;;;;;5075674;28;20213;-67
2022/06/16 01:05:32;;;;;;;0.03;0.03;;;;;;;;;;5058231;28;20262;-67
2022/06/16 01:07:59;;;;;;;0.00;0.00;;;;;;;;;;5076530;28;20272;-67
2022/06/16 01:10:29;;;;;;;0.00;0.00;;;;;;;;;;5057242;28;20246;-66
2022/06/16 01:15:55;;;;;;;0.00;0.00;;;;;;;;;;5052963;28;20254;-66
2022/06/16 01:18:26;;;;;;;0.00;0.00;;;;;;;;;;5072931;28;20211;-67
2022/06/16 01:20:54;;;;;;;0.05;0.05;;;;;;;;;;5060226;28;20259;-67
2022/06/16 01:23:39;;;;;;;0.10;0.10;;;;;;;;;;5073649;28;20235;-68
2022/06/16 01:26:13;;;;;;;0.10;0.10;;;;;;;;;;5061106;28;20438;-67
2022/06/16 01:28:54;;;;;;;0.08;0.08;;;;;;;;;;5071052;28;20300;-68
2022/06/16 01:31:25;;;;;;;0.10;0.10;;;;;;;;;;5063713;28;20311;-67
2022/06/16 01:33:54;;;;;;;0.00;0.00;;;;;;;;;;5069636;28;20234;-67
2022/06/16 01:36:23;;;;;;;0.00;0.00;;;;;;;;;;5063501;28;20278;-66
2022/06/16 01:38:54;;;;;;;0.00;0.00;;;;;;;;;;5069657;28;20373;-68
2022/06/16 01:41:23;;;;;;;0.00;0.00;;;;;;;;;;5063064;28;20389;-67
2022/06/16 01:43:53;;;;;;;0.10;0.10;;;;;;;;;;5069462;28;20253;-68
2022/06/16 01:46:22;;;;;;;0.00;0.00;;;;;;;;;;5063328;28;20512;-67
2022/06/16 01:48:51;;;;;;;0.00;0.00;;;;;;;;;;5069627;28;20213;-66
2022/06/16 01:51:20;;;;;;;0.00;0.00;;;;;;;;;;5062787;28;20239;-67
2022/06/16 01:53:48;;;;;;;0.00;0.00;;;;;;;;;;5069747;28;20280;-67
2022/06/16 01:56:17;;;;;;;0.00;0.00;;;;;;;;;;5062555;28;20279;-67
2022/06/16 01:58:45;;;;;;;0.10;0.10;;;;;;;;;;5069914;28;20275;-67
2022/06/16 02:01:15;;;;;;;0.00;0.00;;;;;;;;;;5061802;28;20463;-67
2022/06/16 02:03:43;;;;;;;0.00;0.00;;;;;;;;;;5070021;28;20501;-67
2022/06/16 02:06:12;;;;;;;0.08;0.08;;;;;;;;;;5061740;28;20287;-67
2022/06/16 02:08:40;;;;;;;0.00;0.00;;;;;;;;;;5070054;28;20373;-67
2022/06/16 02:11:12;;;;;;;0.00;0.00;;;;;;;;;;5061022;28;20246;-67
2022/06/16 02:13:42;;;;;;;0.00;0.00;;;;;;;;;;5070151;28;20240;-67
2022/06/16 02:16:11;;;;;;;0.00;0.00;;;;;;;;;;5061344;28;20274;-68
2022/06/16 02:18:40;;;;;;;0.00;0.00;;;;;;;;;;5070303;28;20205;-67
2022/06/16 02:21:11;;;;;;;0.10;0.10;;;;;;;;;;5060627;28;20237;-67
2022/06/16 02:23:37;;;;;;;0.08;0.08;;;;;;;;;;5070153;28;20555;-67
2022/06/16 02:26:04;;;;;;;0.00;0.00;;;;;;;;;;5060366;28;20563;-67
2022/06/16 02:28:30;;;;;;;0.10;0.10;;;;;;;;;;5070920;28;20265;-67
2022/06/16 02:31:05;;;;;;;0.05;0.05;;;;;;;;;;5059358;28;20280;-66
2022/06/16 02:33:36;;;;;;;0.00;0.00;;;;;;;;;;5070381;28;20513;-67
2022/06/16 02:36:07;;;;;;;0.00;0.00;;;;;;;;;;5060236;28;20322;-67
2022/06/16 02:38:39;;;;;;;0.00;0.00;;;;;;;;;;5070033;28;20192;-67
2022/06/16 02:41:10;;;;;;;0.00;0.00;;;;;;;;;;5060489;28;20494;-68
2022/06/16 02:43:42;;;;;;;0.00;0.00;;;;;;;;;;5069657;28;20193;-67
2022/06/16 02:46:13;;;;;;;0.08;0.08;;;;;;;;;;5060940;28;20644;-66
2022/06/16 02:48:40;;;;;;;0.00;0.00;;;;;;;;;;5069301;28;20229;-68
2022/06/16 02:51:11;;;;;;;0.00;0.00;;;;;;;;;;5060334;28;20394;-66
2022/06/16 02:53:42;;;;;;;0.10;0.10;;;;;;;;;;5069344;28;20208;-67
2022/06/16 02:56:13;;;;;;;0.03;0.03;;;;;;;;;;5060798;28;20568;-67
2022/06/16 02:58:41;;;;;;;0.00;0.00;;;;;;;;;;5069271;28;20194;-66
2022/06/16 03:01:09;;;;;;;0.10;0.10;;;;;;;;;;5060253;28;20241;-67
2022/06/16 03:03:36;;;;;;;0.00;0.00;;;;;;;;;;5069434;28;20201;-67
2022/06/16 03:06:03;;;;;;;0.05;0.05;;;;;;;;;;5059860;28;20639;-66
2022/06/16 03:08:32;;;;;;;0.10;0.10;;;;;;;;;;5070285;28;20206;-67
2022/06/16 03:10:59;;;;;;;0.10;0.10;;;;;;;;;;5058983;28;20325;-67
2022/06/16 03:13:27;;;;;;;0.03;0.03;;;;;;;;;;5070668;28;20397;-67
2022/06/16 03:15:54;;;;;;;0.05;0.05;;;;;;;;;;5058368;28;20248;-67
2022/06/16 03:18:21;;;;;;;0.00;0.00;;;;;;;;;;5071178;28;20313;-68
2022/06/16 03:20:47;;;;;;;0.00;0.00;;;;;;;;;;5057642;28;20588;-66
2022/06/16 03:23:14;;;;;;;0.00;0.00;;;;;;;;;;5071964;28;20226;-67
2022/06/16 03:25:42;;;;;;;0.10;0.10;;;;;;;;;;5056894;28;20246;-67
2022/06/16 03:28:09;;;;;;;0.00;0.00;;;;;;;;;;5072378;28;20292;-67
2022/06/16 03:30:36;;;;;;;0.00;0.00;;;;;;;;;;5056072;28;20241;-67
2022/06/16 03:33:02;;;;;;;0.00;0.00;;;;;;;;;;5074071;28;20207;-67
2022/06/16 03:35:29;;;;;;;0.00;0.00;;;;;;;;;;5055126;28;20249;-67
2022/06/16 03:37:56;;;;;;;0.10;0.10;;;;;;;;;;5074538;28;20481;-67
2022/06/16 03:40:22;;;;;;;0.05;0.05;;;;;;;;;;5054111;28;20260;-67
2022/06/16 03:42:50;;;;;;;0.00;0.00;;;;;;;;;;5075050;28;20230;-67
2022/06/16 03:45:17;;;;;;;0.00;0.00;;;;;;;;;;5053812;28;20388;-66
2022/06/16 03:47:43;;;;;;;0.10;0.10;;;;;;;;;;5075916;28;20200;-66
2022/06/16 03:50:11;;;;;;;0.00;0.00;;;;;;;;;;5054086;28;20254;-67
2022/06/16 03:52:38;;;;;;;0.00;0.00;;;;;;;;;;5080771;28;20197;-68
2022/06/16 03:55:04;;;;;;;0.00;0.00;;;;;;;;;;5066049;28;20207;-68
2022/06/16 03:57:31;;;;;;;0.00;0.00;;;;;;;;;;5071245;28;20361;-68
2022/06/16 03:59:58;;;;;;;0.00;0.00;;;;;;;;;;5065985;28;20205;-68
2022/06/16 04:02:25;;;;;;;0.00;0.00;;;;;;;;;;5070559;28;20235;-68
2022/06/16 04:04:51;;;;;;;0.00;0.00;;;;;;;;;;5065818;28;20211;-68
2022/06/16 04:07:17;;;;;;;0.03;0.03;;;;;;;;;;5071212;28;20290;-68
2022/06/16 04:09:44;;;;;;;0.00;0.00;;;;;;;;;;5065866;28;20277;-67
2022/06/16 04:12:10;;;;;;;0.10;0.10;;;;;;;;;;5070950;28;20399;-67
2022/06/16 04:14:37;;;;;;;0.00;0.00;;;;;;;;;;5065753;28;20261;-67
2022/06/16 04:17:05;;;;;;;0.00;0.00;;;;;;;;;;5070718;28;20393;-66
2022/06/16 04:19:31;;;;;;;0.00;0.00;;;;;;;;;;5065598;28;20272;-67
2022/06/16 04:21:58;;;;;;;0.05;0.05;;;;;;;;;;5069821;28;20232;-69
2022/06/16 04:24:24;;;;;;;0.10;0.10;;;;;;;;;;5066280;28;20204;-68
2022/06/16 04:26:52;;;;;;;0.10;0.10;;;;;;;;;;5069030;28;20623;-68
2022/06/16 04:29:18;;;;;;;0.00;0.00;;;;;;;;;;5066851;28;20233;-67
2022/06/16 04:31:45;;;;;;;0.00;0.00;;;;;;;;;;5067982;28;20305;-68
2022/06/16 04:34:13;;;;;;;0.10;0.10;;;;;;;;;;5068027;28;20266;-67
2022/06/16 04:36:39;;;;;;;0.10;0.10;;;;;;;;;;5067443;28;20315;-67
2022/06/16 04:39:06;;;;;;;0.00;0.00;;;;;;;;;;5068260;28;20274;-68
2022/06/16 04:41:32;;;;;;;0.00;0.00;;;;;;;;;;5065930;28;20239;-68
2022/06/16 04:43:58;;;;;;;0.10;0.10;;;;;;;;;;5069621;28;20205;-67
2022/06/16 04:46:26;;;;;;;0.00;0.00;;;;;;;;;;5064971;28;20240;-68
2022/06/16 04:48:53;;;;;;;0.05;0.05;;;;;;;;;;5070304;28;20290;-67
2022/06/16 04:51:20;;;;;;;0.10;0.10;;;;;;;;;;5064534;28;20243;-67
2022/06/16 04:53:47;;;;;;;0.00;0.00;;;;;;;;;;5070970;28;20519;-66
2022/06/16 04:56:13;;;;;;;0.00;0.00;;;;;;;;;;5063757;28;20242;-68
2022/06/16 04:58:39;;;;;;;0.00;0.00;;;;;;;;;;5071851;28;20209;-67
2022/06/16 05:01:06;;;;;;;0.00;0.00;;;;;;;;;;5062647;28;20256;-68
2022/06/16 05:03:32;;;;;;;0.00;0.00;;;;;;;;;;5072244;28;20293;-67
2022/06/16 05:05:58;;;;;;;0.00;0.00;;;;;;;;;;5061824;28;20326;-68
2022/06/16 05:08:26;;;;;;;0.10;0.10;;;;;;;;;;5073157;28;20503;-68
2022/06/16 05:10:53;;;;;;;0.10;0.10;;;;;;;;;;5060531;28;20301;-68
2022/06/16 05:13:19;;;;;;;0.10;0.10;;;;;;;;;;5073753;28;20211;-69
2022/06/16 05:15:46;;;;;;;0.00;0.00;;;;;;;;;;5059728;28;20311;-68
2022/06/16 05:18:13;;;;;;;0.00;0.00;;;;;;;;;;5074574;28;20381;-67
2022/06/16 05:20:41;;;;;;;0.00;0.00;;;;;;;;;;5058484;28;20511;-67
2022/06/16 05:23:08;;;;;;;0.10;0.10;;;;;;;;;;5074780;28;20226;-67
2022/06/16 05:25:35;;;;;;;0.05;0.05;;;;;;;;;;5058171;28;20242;-67
2022/06/16 05:28:02;;;;;;;0.05;0.05;;;;;;;;;;5075925;28;20239;-68
2022/06/16 05:30:28;;;;;;;2.22;2.17;;;;;;;;;;5057017;28;20306;-68
2022/06/16 05:32:54;;;;;;;0.05;0.05;;;;;;;;;;5076788;28;20427;-68
2022/06/16 05:35:21;;;;;;;0.10;0.10;;;;;;;;;;5056307;28;20523;-68
2022/06/16 05:37:47;;;;;;;0.00;0.00;;;;;;;;;;5077415;28;20201;-66
2022/06/16 05:40:13;;;;;;;0.00;0.00;;;;;;;;;;5054893;28;20278;-67
2022/06/16 05:42:41;;;;;;;0.00;0.00;;;;;;;;;;5078400;28;20215;-68
2022/06/16 05:45:09;;;;;;;0.00;0.00;;;;;;;;;;5054097;28;20209;-67
2022/06/16 05:47:36;;;;;;;0.05;0.05;;;;;;;;;;5079182;28;20488;-68
2022/06/16 05:50:03;;;;;;;0.10;0.10;;;;;;;;;;5064141;28;20301;-67
2022/06/16 05:52:29;;;;;;;0.00;0.00;;;;;;;;;;5069068;28;20479;-67
2022/06/16 05:54:56;;;;;;;0.10;0.10;;;;;;;;;;5063897;28;20403;-67
2022/06/16 05:57:22;;;;;;;0.00;0.00;;;;;;;;;;5069131;28;20269;-67
2022/06/16 05:59:52;;;;;;;0.08;0.08;;;;;;;;;;5064149;28;20488;-67
2022/06/16 06:02:20;;;;;;;0.00;0.00;;;;;;;;;;5068657;28;20238;-67
2022/06/16 06:04:48;;;;;;;0.03;0.03;;;;;;;;;;5063694;28;20215;-68
2022/06/16 06:07:14;;;;;;;0.10;0.10;;;;;;;;;;5068748;28;20240;-68
2022/06/16 06:18:20;;;;;;;0.00;0.00;;;;;;;;;;5002089;28;20179;-67
2022/06/16 06:20:46;;;;;;;0.10;0.10;;;;;;;;;;4997378;28;20492;-68
2022/06/16 06:23:13;;;;;;;0.10;0.10;;;;;;;;;;5030704;28;20245;-68
2022/06/16 06:25:39;;;;;;;0.10;0.10;;;;;;;;;;5042059;28;20311;-68
2022/06/16 06:28:06;;;;;;;0.05;0.05;;;;;;;;;;5074235;28;20423;-64
2022/06/16 06:30:34;;;;;;;0.10;0.10;;;;;;;;;;5056689;28;20332;-68
2022/06/16 06:33:01;;;;;;;0.00;0.00;;;;;;;;;;5075233;28;20213;-67
2022/06/16 06:35:27;;;;;;;0.10;0.10;;;;;;;;;;5055935;28;20250;-67
2022/06/16 06:37:53;;;;;;;0.10;0.10;;;;;;;;;;5075623;28;20211;-67
2022/06/16 06:40:21;;;;;;;0.10;0.10;;;;;;;;;;5055057;28;20522;-67
2022/06/16 06:42:47;;;;;;;0.00;0.00;;;;;;;;;;5076729;28;20322;-67
2022/06/16 06:45:13;;;;;;;0.10;0.10;;;;;;;;;;5053941;28;20253;-69
2022/06/16 06:47:41;;;;;;;0.00;0.00;;;;;;;;;;5077726;28;20196;-68
2022/06/16 06:50:08;;;;;;;0.00;0.00;;;;;;;;;;5053538;28;20435;-68
2022/06/16 06:52:34;;;;;;;0.10;0.10;;;;;;;;;;5078129;28;20455;-66
2022/06/16 06:55:01;;;;;;;0.00;0.00;;;;;;;;;;5062774;28;20217;-67
2022/06/16 06:57:30;;;;;;;0.10;0.10;;;;;;;;;;5068524;28;20250;-68
2022/06/16 06:59:57;;;;;;;0.10;0.10;;;;;;;;;;5062981;28;20235;-69
2022/06/16 07:02:23;;;;;;;0.10;0.10;;;;;;;;;;5068214;28;20245;-68
2022/06/16 07:04:52;;;;;;;0.10;0.10;;;;;;;;;;5062949;28;20275;-67
2022/06/16 07:07:20;;;;;;;0.00;0.00;;;;;;;;;;5067879;28;20408;-68
2022/06/16 07:09:46;;;;;;;0.10;0.10;;;;;;;;;;5063004;28;20368;-68
2022/06/16 07:12:14;;;;;;;0.00;0.00;;;;;;;;;;5068260;28;20249;-66
2022/06/16 07:14:40;;;;;;;0.00;0.00;;;;;;;;;;5062676;28;20546;-66
2022/06/16 07:17:07;;;;;;;0.08;0.08;;;;;;;;;;5067581;28;20437;-67
2022/06/16 07:19:34;;;;;;;0.00;0.00;;;;;;;;;;5062643;28;20240;-67
2022/06/16 07:22:02;;;;;;;0.00;0.00;;;;;;;;;;5067372;28;20302;-68
2022/06/16 07:24:28;;;;;;;0.08;0.08;;;;;;;;;;5062203;28;20566;-67
2022/06/16 07:26:55;;;;;;;0.00;0.00;;;;;;;;;;5066534;28;20416;-67
2022/06/16 07:29:21;;;;;;;0.10;0.10;;;;;;;;;;5063521;28;20546;-66
2022/06/16 07:31:48;;;;;;;0.00;0.00;;;;;;;;;;5065583;28;20241;-67
2022/06/16 07:34:15;;;;;;;0.10;0.10;;;;;;;;;;5064669;28;20456;-66
2022/06/16 07:36:41;;;;;;;0.10;0.10;;;;;;;;;;5064327;28;20283;-67
2022/06/16 07:39:09;;;;;;;0.00;0.00;;;;;;;;;;5065352;28;20288;-67
2022/06/16 07:41:35;;;;;;;0.10;0.10;;;;;;;;;;5064067;28;20395;-68
2022/06/16 07:44:03;;;;;;;0.03;0.03;;;;;;;;;;5065916;28;20294;-69
2022/06/16 07:46:29;;;;;;;0.00;0.00;;;;;;;;;;5063064;28;20443;-67
2022/06/16 07:48:56;;;;;;;0.10;0.10;;;;;;;;;;5066865;28;20217;-68
2022/06/16 07:51:22;;;;;;;0.00;0.00;;;;;;;;;;5062284;28;20364;-68
2022/06/16 07:53:49;;;;;;;0.00;0.00;;;;;;;;;;5067533;28;20272;-68
2022/06/16 07:56:17;;;;;;;0.00;0.00;;;;;;;;;;5061048;28;20343;-69
2022/06/16 07:58:43;;;;;;;0.00;0.00;;;;;;;;;;5068521;28;20207;-68
2022/06/16 08:01:11;;;;;;;0.00;0.00;;;;;;;;;;5060408;28;20271;-67
2022/06/16 08:03:38;;;;;;;0.00;0.00;;;;;;;;;;5068675;28;20226;-68
2022/06/16 08:06:06;;;;;;;0.00;0.00;;;;;;;;;;5059447;28;20241;-68
2022/06/16 08:08:33;;;;;;;0.00;0.00;;;;;;;;;;5069681;28;20207;-68
2022/06/16 08:10:59;;;;;;;0.00;0.00;;;;;;;;;;5058942;28;20570;-67
2022/06/16 08:13:27;;;;;;;0.00;0.00;;;;;;;;;;5070552;28;20238;-67
2022/06/16 08:15:54;;;;;;;0.00;0.00;;;;;;;;;;5057976;28;20320;-67
2022/06/16 08:18:23;;;;;;;0.00;0.00;;;;;;;;;;5070921;28;20215;-67
2022/06/16 08:20:50;;;;;;;0.00;0.00;;;;;;;;;;5057388;28;20277;-68
2022/06/16 08:23:16;;;;;;;0.10;0.10;;;;;;;;;;5071435;28;20231;-68
2022/06/16 08:25:43;;;;;;;0.00;0.00;;;;;;;;;;5056688;28;20603;-68
2022/06/16 08:28:10;;;;;;;0.00;0.00;;;;;;;;;;5072231;28;20231;-67
2022/06/16 08:30:41;;;;;;;0.10;0.10;;;;;;;;;;5056478;28;20240;-68
2022/06/16 08:33:09;;;;;;;0.10;0.10;;;;;;;;;;5073543;28;20198;-69
2022/06/16 08:35:35;;;;;;;0.00;0.00;;;;;;;;;;5056940;28;20431;-68
2022/06/16 08:38:02;;;;;;;0.00;0.00;;;;;;;;;;5077661;28;20201;-67
2022/06/16 08:40:29;;;;;;;0.00;0.00;;;;;;;;;;5059211;28;20250;-69
2022/06/16 08:42:58;;;;;;;0.00;0.00;;;;;;;;;;5078687;28;20234;-67
2022/06/16 08:45:31;;;;;;;0.00;0.00;;;;;;;;;;5058580;28;20309;-70
2022/06/16 08:48:06;;;;;;;0.00;0.00;;;;;;;;;;5078279;28;20218;-69
2022/06/16 08:50:34;;;;;;;0.10;0.10;;;;;;;;;;5059959;28;20591;-67
2022/06/16 08:53:06;;;;;;;0.00;0.00;;;;;;;;;;5077572;28;20220;-68
2022/06/16 08:55:35;;;;;;;0.00;0.00;;;;;;;;;;5059195;28;20241;-68
2022/06/16 08:58:06;;;;;;;0.00;0.00;;;;;;;;;;5077157;28;20397;-66
2022/06/16 09:00:38;;;;;;;0.00;0.00;;;;;;;;;;5058942;28;20246;-68
2022/06/16 09:03:08;;;;;;;0.00;0.00;;;;;;;;;;5076688;28;20195;-68
2022/06/16 09:05:41;;;;;;;0.00;0.00;;;;;;;;;;5059109;28;20255;-68
2022/06/16 09:08:13;;;;;;;0.00;0.00;;;;;;;;;;5076357;28;20386;-68
2022/06/16 09:10:42;;;;;;;0.00;0.00;;;;;;;;;;5059756;28;20445;-68
2022/06/16 09:13:29;;;;;;;0.00;0.00;;;;;;;;;;5076170;28;20221;-67
2022/06/16 09:16:02;;;;;;;0.00;0.00;;;;;;;;;;5061790;28;20308;-69
2022/06/16 09:18:45;;;;;;;0.10;0.10;;;;;;;;;;5073551;28;20227;-67
2022/06/16 09:21:16;;;;;;;0.00;0.00;;;;;;;;;;5063688;28;20265;-68
2022/06/16 09:24:03;;;;;;;0.00;0.00;;;;;;;;;;5071555;28;20583;-68
2022/06/16 09:26:32;;;;;;;0.00;0.00;;;;;;;;;;5065998;28;20244;-67
2022/06/16 09:29:01;;;;;;;0.00;0.00;;;;;;;;;;5069817;28;20454;-68
2022/06/16 09:31:31;;;;;;;0.00;0.00;;;;;;;;;;5065452;28;20272;-67
2022/06/16 09:34:03;;;;;;;0.00;0.00;;;;;;;;;;5070164;28;20195;-66
2022/06/16 09:36:31;;;;;;;0.10;0.10;;;;;;;;;;5065855;28;20289;-68
2022/06/16 09:39:00;;;;;;;0.00;0.00;;;;;;;;;;5069436;28;20208;-67
2022/06/16 09:44:19;;;;;;;0.00;0.00;;;;;;;;;;5066960;28;20560;-69
2022/06/16 09:46:47;;;;;;;0.00;0.00;;;;;;;;;;5067198;28;20253;-68
2022/06/16 09:49:16;;;;;;;0.00;0.00;;;;;;;;;;5066680;28;20243;-68
2022/06/16 09:51:48;;;;;;;0.00;0.00;;;;;;;;;;5067531;28;20381;-68
2022/06/16 09:54:16;;;;;;;0.00;0.00;;;;;;;;;;5066789;28;20545;-68
2022/06/16 09:56:46;;;;;;;0.00;0.00;;;;;;;;;;5066901;28;20243;-67
2022/06/16 09:59:15;;;;;;;0.00;0.00;;;;;;;;;;5067290;28;20238;-68
2022/06/16 10:01:44;;;;;;;0.00;0.00;;;;;;;;;;5066791;28;20242;-68
2022/06/16 10:04:10;;;;;;;0.00;0.00;;;;;;;;;;5067330;28;20255;-67
2022/06/16 10:06:41;;;;;;;0.00;0.00;;;;;;;;;;5066229;28;20320;-67
2022/06/16 10:09:15;;;;;;;0.00;0.00;;;;;;;;;;5067503;28;20522;-69
2022/06/16 10:11:48;;;;;;;0.00;0.00;;;;;;;;;;5067031;28;20312;-68
2022/06/16 10:14:17;;;;;;;0.00;0.00;;;;;;;;;;5066431;28;20259;-69
2022/06/16 10:16:47;;;;;;;0.00;0.00;;;;;;;;;;5066579;28;20366;-68
2022/06/16 10:19:13;;;;;;;0.00;0.00;;;;;;;;;;5066247;28;20305;-67
2022/06/16 10:21:41;;;;;;;0.00;0.00;;;;;;;;;;5066169;28;20258;-66
2022/06/16 10:24:08;;;;;;;0.05;0.05;;;;;;;;;;5067089;28;20294;-68
2022/06/16 10:26:35;;;;;;;0.00;0.00;;;;;;;;;;5065034;28;20303;-68
2022/06/16 10:29:06;;;;;;;0.00;0.00;;;;;;;;;;5067453;28;20224;-69
2022/06/16 10:31:34;;;;;;;0.00;0.00;;;;;;;;;;5064743;28;20310;-68
2022/06/16 10:34:01;;;;;;;0.00;0.00;;;;;;;;;;5067798;28;20325;-68
2022/06/16 10:36:28;;;;;;;0.00;0.00;;;;;;;;;;5064012;28;20273;-68
2022/06/16 10:39:10;;;;;;;0.00;0.00;;;;;;;;;;5068526;28;20214;-69
2022/06/16 10:41:37;;;;;;;0.00;0.00;;;;;;;;;;5065514;28;20310;-67
2022/06/16 10:44:06;;;;;;;0.00;0.00;;;;;;;;;;5066830;28;20295;-68
2022/06/16 10:46:34;;;;;;;0.00;0.00;;;;;;;;;;5064499;28;20243;-67
2022/06/16 10:49:02;;;;;;;0.00;0.00;;;;;;;;;;5067171;28;20242;-66
2022/06/16 10:51:29;;;;;;;0.00;0.00;;;;;;;;;;5063878;28;20486;-67
2022/06/16 10:54:04;;;;;;;0.00;0.00;;;;;;;;;;5068089;28;20527;-68
2022/06/16 10:56:31;;;;;;;0.00;0.00;;;;;;;;;;5063867;28;20257;-67
2022/06/16 10:58:59;;;;;;;0.00;0.00;;;;;;;;;;5067944;28;20239;-69
2022/06/16 11:01:31;;;;;;;0.00;0.00;;;;;;;;;;5063601;28;20421;-69
2022/06/16 11:04:03;;;;;;;0.00;0.00;;;;;;;;;;5067836;28;20279;-68
2022/06/16 11:06:30;;;;;;;0.00;0.00;;;;;;;;;;5063669;28;20239;-69
2022/06/16 11:08:58;;;;;;;0.05;0.05;;;;;;;;;;5067751;28;20196;-67
2022/06/16 11:11:39;;;;;;;0.00;0.00;;;;;;;;;;5063326;28;20250;-68
2022/06/16 11:14:07;;;;;;;0.08;0.08;;;;;;;;;;5066270;28;20215;-68
2022/06/16 11:16:37;;;;;;;0.00;0.00;;;;;;;;;;5064099;28;20306;-69
2022/06/16 11:19:10;;;;;;;0.00;0.00;;;;;;;;;;5066568;28;20211;-67
2022/06/16 11:21:37;;;;;;;0.00;0.00;;;;;;;;;;5064608;28;20246;-69
2022/06/16 11:24:06;;;;;;;0.00;0.00;;;;;;;;;;5065526;28;20234;-68
2022/06/16 11:26:34;;;;;;;0.00;0.00;;;;;;;;;;5063002;28;20243;-69
2022/06/16 11:29:02;;;;;;;0.00;0.00;;;;;;;;;;5066525;28;20613;-69
2022/06/16 11:31:46;;;;;;;0.00;0.00;;;;;;;;;;5063132;28;20267;-70
2022/06/16 11:34:15;;;;;;;0.00;0.00;;;;;;;;;;5064617;28;20234;-68
2022/06/16 11:36:51;;;;;;;0.00;0.00;;;;;;;;;;5064463;28;20550;-69
2022/06/16 11:39:22;;;;;;;0.00;0.00;;;;;;;;;;5063861;28;20374;-67
2022/06/16 11:41:51;;;;;;;0.00;0.00;;;;;;;;;;5065290;28;20310;-68
2022/06/16 11:44:25;;;;;;;0.00;0.00;;;;;;;;;;5063609;28;20227;-68
2022/06/16 11:46:56;;;;;;;0.00;0.00;;;;;;;;;;5065742;28;20265;-68
2022/06/16 11:49:29;;;;;;;0.00;0.00;;;;;;;;;;5063385;28;20450;-68
2022/06/16 11:51:58;;;;;;;0.00;0.00;;;;;;;;;;5066313;28;20239;-68
2022/06/16 11:54:29;;;;;;;0.00;0.00;;;;;;;;;;5063131;28;20247;-69
2022/06/16 11:57:02;;;;;;;0.00;0.00;;;;;;;;;;5066199;28;20280;-68
2022/06/16 11:59:51;;;;;;;0.00;0.00;;;;;;;;;;5062667;28;20488;-68
2022/06/16 12:02:31;;;;;;;0.00;0.00;;;;;;;;;;5067437;28;20250;-69
2022/06/16 12:05:06;;;;;;;0.00;0.00;;;;;;;;;;5062041;28;20265;-68
2022/06/16 12:07:54;;;;;;;0.00;0.00;;;;;;;;;;5014194;28;20271;-68
2022/06/16 12:10:25;;;;;;;0.00;0.00;;;;;;;;;;5034273;28;20220;-68
2022/06/16 12:13:14;;;;;;;0.00;0.00;;;;;;;;;;5058456;28;20202;-67
2022/06/16 12:15:48;;;;;;;0.00;0.00;;;;;;;;;;5040178;28;20601;-69
2022/06/16 12:18:20;;;;;;;0.00;0.00;;;;;;;;;;5055391;28;20257;-68
2022/06/16 12:20:52;;;;;;;0.00;0.00;;;;;;;;;;5041236;28;20240;-68
2022/06/16 12:23:23;;;;;;;0.00;0.00;;;;;;;;;;5054732;28;20255;-68
2022/06/16 12:25:53;;;;;;;0.00;0.00;;;;;;;;;;5041120;28;20484;-68
2022/06/16 12:28:23;;;;;;;0.00;0.00;;;;;;;;;;5054907;28;20224;-68
2022/06/16 12:30:55;;;;;;;0.00;0.00;;;;;;;;;;5041427;28;20240;-68
2022/06/16 12:33:26;;;;;;;0.00;0.00;;;;;;;;;;5054302;28;20212;-69
2022/06/16 12:35:57;;;;;;;0.00;0.00;;;;;;;;;;5041702;28;20243;-70
2022/06/16 12:38:26;;;;;;;0.00;0.00;;;;;;;;;;5054232;28;20235;-71
2022/06/16 12:40:54;;;;;;;0.00;0.00;;;;;;;;;;5041629;28;20240;-70
2022/06/16 12:43:24;;;;;;;0.00;0.00;;;;;;;;;;5054026;28;20204;-70
2022/06/16 12:45:55;;;;;;;0.00;0.00;;;;;;;;;;5041266;28;20240;-70
2022/06/16 12:48:25;;;;;;;0.00;0.00;;;;;;;;;;5053999;28;20193;-74
2022/06/16 12:50:54;;;;;;;0.00;0.00;;;;;;;;;;5041312;28;20240;-74
2022/06/16 12:53:23;;;;;;;0.00;0.00;;;;;;;;;;5053975;28;20531;-75
2022/06/16 12:55:52;;;;;;;0.00;0.00;;;;;;;;;;5041241;28;20563;-74
2022/06/16 12:58:20;;;;;;;0.00;0.00;;;;;;;;;;5054348;28;20272;-74
2022/06/16 13:00:49;;;;;;;0.00;0.00;;;;;;;;;;5040401;28;20239;-73
2022/06/16 13:03:20;;;;;;;0.00;0.00;;;;;;;;;;5054761;28;20259;-74
2022/06/16 13:05:47;;;;;;;0.00;0.00;;;;;;;;;;5040440;28;20489;-74
2022/06/16 13:08:14;;;;;;;0.00;0.00;;;;;;;;;;5055143;28;20270;-73
2022/06/16 13:10:42;;;;;;;0.00;0.00;;;;;;;;;;5039519;28;20259;-73
2022/06/16 13:13:10;;;;;;;0.00;0.00;;;;;;;;;;5055618;28;20243;-74
2022/06/16 13:15:38;;;;;;;0.00;0.00;;;;;;;;;;5038882;28;20285;-74
2022/06/16 13:18:07;;;;;;;0.00;0.00;;;;;;;;;;5055789;28;20287;-74
2022/06/16 13:20:36;;;;;;;0.00;0.00;;;;;;;;;;5038715;28;20244;-72
2022/06/16 13:23:04;;;;;;;0.00;0.00;;;;;;;;;;5054912;28;20204;-74
2022/06/16 13:25:36;;;;;;;0.00;0.00;;;;;;;;;;5038350;28;20240;-74
2022/06/16 13:28:06;;;;;;;0.00;0.00;;;;;;;;;;5056656;28;20853;-73
2022/06/16 13:30:39;;;;;;;0.00;0.00;;;;;;;;;;5039290;28;20240;-74
2022/06/16 13:33:19;;;;;;;0.00;0.00;;;;;;;;;;5055636;28;20231;-73
2022/06/16 13:36:07;;;;;;;0.00;0.00;;;;;;;;;;5040013;28;20245;-74
2022/06/16 13:38:44;;;;;;;0.00;0.00;;;;;;;;;;5052309;28;20264;-72
2022/06/16 13:41:43;;;;;;;0.00;0.00;;;;;;;;;;5043366;28;20245;-74
2022/06/16 13:44:29;;;;;;;0.00;0.00;;;;;;;;;;5047171;28;20224;-73
2022/06/16 13:47:14;;;;;;;0.00;0.00;;;;;;;;;;5048684;28;20266;-73
2022/06/16 13:49:55;;;;;;;0.00;0.00;;;;;;;;;;5044485;28;20231;-74
2022/06/16 13:52:27;;;;;;;0.00;0.00;;;;;;;;;;5049687;28;20274;-74
2022/06/16 13:55:04;;;;;;;0.00;0.00;;;;;;;;;;5043943;28;20530;-73
2022/06/16 13:57:33;;;;;;;0.00;0.00;;;;;;;;;;5036078;28;20498;-74
2022/06/16 14:00:01;;;;;;;0.00;0.00;;;;;;;;;;5064214;28;20204;-75
2022/06/16 14:02:27;;;;;;;0.00;0.00;;;;;;;;;;5069808;28;20271;-74
2022/06/16 14:05:01;;;;;;;0.00;0.00;;;;;;;;;;5063983;28;20291;-73
2022/06/16 14:07:30;;;;;;;0.00;0.00;;;;;;;;;;5069008;28;20466;-74
2022/06/16 14:10:00;;;;;;;0.00;0.00;;;;;;;;;;5063661;28;20227;-75
2022/06/16 14:12:42;;;;;;;0.20;0.20;;;;;;;;;;5069322;28;20244;-74
2022/06/16 14:15:09;;;;;;;0.00;0.00;;;;;;;;;;5053931;28;20223;-74
2022/06/16 14:17:37;;;;;;;0.00;0.00;;;;;;;;;;5078421;28;20211;-73
2022/06/16 14:20:07;;;;;;;0.00;0.00;;;;;;;;;;5063682;28;20407;-75
2022/06/16 14:22:37;;;;;;;0.00;0.00;;;;;;;;;;5035675;28;20547;-74
2022/06/16 14:25:09;;;;;;;0.00;0.00;;;;;;;;;;5063997;28;20390;-74
2022/06/16 14:27:36;;;;;;;0.00;0.00;;;;;;;;;;5035624;28;20599;-73
2022/06/16 14:30:04;;;;;;;0.00;0.00;;;;;;;;;;5063579;28;20441;-75
2022/06/16 14:32:35;;;;;;;0.00;0.00;;;;;;;;;;5035392;28;20199;-75
2022/06/16 14:35:05;;;;;;;0.00;0.00;;;;;;;;;;5062873;28;20189;-74
2022/06/16 14:37:35;;;;;;;0.00;0.00;;;;;;;;;;5035399;28;20245;-74
2022/06/16 14:40:07;;;;;;;0.00;0.00;;;;;;;;;;5063171;28;20206;-73
2022/06/16 14:42:34;;;;;;;0.00;0.00;;;;;;;;;;5035115;28;20208;-75
2022/06/16 14:45:04;;;;;;;0.00;0.00;;;;;;;;;;5063239;28;20277;-75
2022/06/16 14:47:34;;;;;;;0.00;0.00;;;;;;;;;;5035129;28;20279;-73
2022/06/16 14:50:03;;;;;;;0.00;0.00;;;;;;;;;;5063274;28;20259;-73
2022/06/16 14:52:31;;;;;;;0.00;0.00;;;;;;;;;;5068630;28;20422;-74
2022/06/16 14:55:04;;;;;;;0.00;0.00;;;;;;;;;;5062937;28;20231;-74
2022/06/16 14:57:37;;;;;;;0.00;0.00;;;;;;;;;;5035381;28;20230;-75
2022/06/16 15:00:05;;;;;;;0.00;0.00;;;;;;;;;;5063206;28;20224;-74
2022/06/16 15:02:32;;;;;;;0.00;0.00;;;;;;;;;;5035300;28;20480;-73
2022/06/16 15:05:01;;;;;;;0.00;0.00;;;;;;;;;;5062797;28;20449;-74
2022/06/16 15:07:27;;;;;;;0.00;0.00;;;;;;;;;;5068295;28;20243;-74
2022/06/16 15:09:54;;;;;;;0.00;0.00;;;;;;;;;;5062833;28;20211;-74